Аэропорт: Остафьево. Москва

ICAO: UUMO

METAR:
2022-06-26 10:00:00
UUMO 261000Z 33003MPS 270V020 CAVOK 29/15 Q1021 R07/CLRD60 NOSIG RMK QFE751/1002
METAR:
Информация по данной станции не доступна